Time;durP1;ratioP1;P1;durP2;ratioP2;P2;SDS_P1;SDS_P2;PMS_P1;PMS_P2;Temp;Humidity;BMP_temperature;BMP_pressure;BME280_temperature;BME280_humidity;BME280_pressure;Samples;Min_cycle;Max_cycle;Signal;HPM_P1;HPM_P2
2022/07/24 00:00:44;;;;;;;11.10;10.20;;;21.00;99.90;;;;;;4956535;28;20222;-78
2022/07/24 00:03:11;;;;;;;11.90;10.90;;;20.90;99.90;;;;;;4957481;29;20274;-78
2022/07/24 00:05:38;;;;;;;11.47;10.47;;;20.80;99.90;;;;;;4956051;29;20214;-78
2022/07/24 00:08:05;;;;;;;11.67;10.57;;;20.80;99.90;;;;;;4957319;29;20679;-77
2022/07/24 00:10:32;;;;;;;12.53;11.43;;;20.70;99.90;;;;;;4955862;28;20280;-77
2022/07/24 00:13:00;;;;;;;12.20;11.10;;;20.70;99.90;;;;;;4955706;29;20202;-78
2022/07/24 00:15:27;;;;;;;12.30;11.27;;;20.60;99.90;;;;;;4955728;29;20206;-78
2022/07/24 00:17:54;;;;;;;12.23;11.13;;;20.60;99.90;;;;;;4957421;28;20269;-78
2022/07/24 00:20:21;;;;;;;12.00;11.00;;;20.50;99.90;;;;;;4955800;28;20221;-77
2022/07/24 00:22:48;;;;;;;12.20;11.20;;;20.50;99.90;;;;;;4957017;28;20220;-78
2022/07/24 00:25:15;;;;;;;12.40;11.40;;;20.50;99.90;;;;;;4956837;29;20680;-78
2022/07/24 00:27:42;;;;;;;12.47;11.37;;;20.50;99.90;;;;;;4955653;28;20218;-77
2022/07/24 00:30:11;;;;;;;12.97;11.77;;;20.50;99.90;;;;;;4957062;28;20218;-78
2022/07/24 00:32:38;;;;;;;13.10;11.90;;;20.40;99.90;;;;;;4956844;29;20217;-78
2022/07/24 00:35:06;;;;;;;12.07;11.07;;;20.40;99.90;;;;;;4955448;29;20230;-78
2022/07/24 00:37:32;;;;;;;12.93;11.83;;;20.40;99.90;;;;;;4955858;29;20614;-78
2022/07/24 00:39:59;;;;;;;12.90;11.80;;;20.30;99.90;;;;;;4955226;28;20222;-78
2022/07/24 00:42:26;;;;;;;13.13;12.03;;;20.30;99.90;;;;;;4955726;28;20202;-78
2022/07/24 00:44:53;;;;;;;12.80;11.70;;;20.30;99.90;;;;;;4955269;29;20675;-78
2022/07/24 00:47:21;;;;;;;13.13;12.03;;;20.20;99.90;;;;;;4956717;29;20221;-79
2022/07/24 00:49:48;;;;;;;12.53;11.43;;;20.20;99.90;;;;;;4955482;28;20643;-79
2022/07/24 00:52:14;;;;;;;12.27;11.20;;;20.20;99.90;;;;;;4955506;29;20202;-78
2022/07/24 00:54:41;;;;;;;13.27;12.07;;;20.20;99.90;;;;;;4955021;29;20213;-78
2022/07/24 00:57:08;;;;;;;12.80;11.77;;;20.20;99.90;;;;;;4956961;28;20197;-79
2022/07/24 00:59:35;;;;;;;12.33;11.30;;;20.10;99.90;;;;;;4955214;28;20209;-78
2022/07/24 01:02:02;;;;;;;12.77;11.67;;;20.10;99.90;;;;;;4953881;28;20241;-78
2022/07/24 01:04:30;;;;;;;11.60;10.60;;;20.10;99.90;;;;;;4956377;29;20205;-78
2022/07/24 01:06:57;;;;;;;11.80;10.80;;;20.10;99.90;;;;;;4955166;29;20221;-78
2022/07/24 01:09:24;;;;;;;13.47;12.30;;;20.10;99.90;;;;;;4956509;28;20205;-78
2022/07/24 01:11:52;;;;;;;12.53;11.53;;;20.10;99.90;;;;;;4956291;29;20202;-78
2022/07/24 01:14:19;;;;;;;12.63;11.43;;;20.00;99.90;;;;;;4956479;28;20200;-77
2022/07/24 01:16:46;;;;;;;12.00;11.00;;;20.00;99.90;;;;;;4955136;29;20209;-78
2022/07/24 01:19:13;;;;;;;12.77;11.67;;;19.90;99.90;;;;;;4954967;29;20206;-78
2022/07/24 01:21:46;;;;;;;12.00;10.90;;;19.90;99.90;;;;;;4954966;28;20229;-78
2022/07/24 01:24:13;;;;;;;12.83;11.63;;;19.80;99.90;;;;;;4963314;28;20288;-78
2022/07/24 01:26:40;;;;;;;12.67;11.57;;;19.70;99.90;;;;;;4954707;29;20769;-77
2022/07/24 01:29:06;;;;;;;13.77;12.47;;;19.60;99.90;;;;;;4956360;28;20533;-78
2022/07/24 01:31:33;;;;;;;9.90;8.90;;;19.60;99.90;;;;;;4954899;29;20232;-78
2022/07/24 01:34:00;;;;;;;9.77;8.80;;;19.60;99.90;;;;;;4954268;28;20221;-78
2022/07/24 01:36:27;;;;;;;10.97;9.97;;;19.60;99.90;;;;;;4956159;28;20212;-77
2022/07/24 01:38:55;;;;;;;11.93;10.93;;;19.60;99.90;;;;;;4955928;29;20205;-77
2022/07/24 01:41:22;;;;;;;12.23;11.17;;;19.50;99.90;;;;;;4954732;28;20236;-79
2022/07/24 01:43:49;;;;;;;12.67;11.57;;;19.50;99.90;;;;;;4954288;29;20252;-78
2022/07/24 01:46:16;;;;;;;13.47;12.27;;;19.50;99.90;;;;;;4954364;29;20260;-78
2022/07/24 01:48:44;;;;;;;13.27;12.07;;;19.50;99.90;;;;;;4955438;28;20195;-78
2022/07/24 01:51:12;;;;;;;11.13;10.03;;;19.40;99.90;;;;;;4946978;29;20221;-77
2022/07/24 01:53:39;;;;;;;10.53;9.53;;;19.40;99.90;;;;;;4954573;29;20634;-78
2022/07/24 01:56:07;;;;;;;10.73;9.73;;;19.40;99.90;;;;;;4955617;28;20675;-77
2022/07/24 01:58:34;;;;;;;10.30;9.30;;;19.40;99.90;;;;;;4954401;29;20202;-77
2022/07/24 02:01:01;;;;;;;9.80;8.90;;;19.40;99.90;;;;;;4954219;28;20578;-78
2022/07/24 02:03:28;;;;;;;10.40;9.40;;;19.40;99.90;;;;;;4953903;29;20601;-78
2022/07/24 02:05:54;;;;;;;10.97;10.07;;;19.40;99.90;;;;;;4955055;29;20201;-78
2022/07/24 02:08:21;;;;;;;10.43;9.53;;;19.40;99.90;;;;;;4954048;29;20816;-78
2022/07/24 02:10:48;;;;;;;13.30;12.10;;;19.40;99.90;;;;;;4955450;28;20288;-78
2022/07/24 02:13:16;;;;;;;12.67;11.60;;;19.30;99.90;;;;;;4954890;28;20201;-78
2022/07/24 02:15:43;;;;;;;13.77;12.23;;;19.30;99.90;;;;;;4956952;29;20251;-79
2022/07/24 02:18:10;;;;;;;12.37;11.23;;;19.20;99.90;;;;;;4947750;29;20736;-78
2022/07/24 02:20:37;;;;;;;13.10;11.90;;;19.10;99.90;;;;;;4953584;28;20230;-78
2022/07/24 02:23:03;;;;;;;13.27;12.03;;;19.20;99.90;;;;;;4952719;29;20204;-78
2022/07/24 02:25:30;;;;;;;13.47;12.27;;;19.10;99.90;;;;;;4953828;29;20239;-78
2022/07/24 02:27:57;;;;;;;12.87;11.77;;;19.10;99.90;;;;;;4955389;28;20213;-78
2022/07/24 02:30:25;;;;;;;13.37;12.20;;;19.10;99.90;;;;;;4953700;28;20266;-78
2022/07/24 02:32:52;;;;;;;12.60;11.50;;;19.10;99.90;;;;;;4953418;29;20710;-78
2022/07/24 02:35:19;;;;;;;13.10;12.00;;;19.10;99.90;;;;;;4954932;29;20634;-78
2022/07/24 02:37:46;;;;;;;14.00;12.73;;;19.00;99.90;;;;;;4954906;29;20229;-78
2022/07/24 02:40:15;;;;;;;14.47;13.17;;;19.00;99.90;;;;;;4953984;28;20771;-78
2022/07/24 02:42:42;;;;;;;13.87;12.57;;;18.90;99.90;;;;;;4955020;28;20196;-78
2022/07/24 02:45:10;;;;;;;13.13;12.03;;;18.90;99.90;;;;;;4953408;29;20193;-78
2022/07/24 02:47:48;;;;;;;13.40;12.27;;;18.90;99.90;;;;;;4954979;28;20330;-78
2022/07/24 02:50:15;;;;;;;14.13;12.93;;;18.80;99.90;;;;;;4953269;28;20216;-78
2022/07/24 02:52:41;;;;;;;13.43;12.33;;;18.80;99.90;;;;;;4954887;29;20221;-78
2022/07/24 02:55:09;;;;;;;13.13;12.07;;;18.90;99.90;;;;;;4953469;29;20204;-78
2022/07/24 02:57:36;;;;;;;14.83;13.53;;;18.80;99.90;;;;;;4942648;28;20201;-78
2022/07/24 03:00:04;;;;;;;13.77;12.67;;;18.80;99.90;;;;;;4950246;28;20771;-79
2022/07/24 03:02:31;;;;;;;14.53;13.33;;;18.80;99.90;;;;;;4954276;28;20216;-79
2022/07/24 03:04:59;;;;;;;14.63;13.40;;;18.80;99.90;;;;;;4949873;28;21342;-79
2022/07/24 03:07:26;;;;;;;14.70;13.50;;;18.70;99.90;;;;;;4954741;28;20243;-77
2022/07/24 03:09:53;;;;;;;14.70;13.40;;;18.70;99.90;;;;;;4965775;28;20235;-81
2022/07/24 03:12:20;;;;;;;14.90;13.70;;;18.70;99.90;;;;;;4958988;29;20639;-79
2022/07/24 03:14:48;;;;;;;14.53;13.33;;;18.60;99.90;;;;;;4958317;29;20197;-80
2022/07/24 03:17:15;;;;;;;14.23;12.93;;;18.60;99.90;;;;;;4955688;29;20660;-80
2022/07/24 03:19:42;;;;;;;14.07;12.87;;;18.60;99.90;;;;;;4956723;28;20650;-80
2022/07/24 03:22:10;;;;;;;13.23;12.03;;;18.60;99.90;;;;;;4955735;29;20556;-80
2022/07/24 03:24:37;;;;;;;13.00;11.80;;;18.60;99.90;;;;;;4955172;28;20297;-80
2022/07/24 03:27:04;;;;;;;13.50;12.30;;;18.60;99.90;;;;;;4972257;28;20258;-79
2022/07/24 03:29:31;;;;;;;13.83;12.53;;;18.60;99.90;;;;;;4977414;28;20298;-79
2022/07/24 03:32:00;;;;;;;13.70;12.60;;;18.50;99.90;;;;;;4962462;29;20209;-79
2022/07/24 03:34:30;;;;;;;12.47;11.43;;;18.50;99.90;;;;;;4958756;29;20639;-80
2022/07/24 03:36:57;;;;;;;13.37;12.27;;;18.50;99.90;;;;;;4961151;29;20208;-79
2022/07/24 03:39:25;;;;;;;14.00;12.80;;;18.50;99.90;;;;;;4958074;29;20293;-80
2022/07/24 03:41:52;;;;;;;14.67;13.47;;;18.50;99.90;;;;;;4962500;29;20965;-79
2022/07/24 03:44:19;;;;;;;14.17;12.97;;;18.50;99.90;;;;;;4959015;29;20548;-80
2022/07/24 03:46:46;;;;;;;13.83;12.67;;;18.50;99.90;;;;;;4958768;28;20310;-78
2022/07/24 03:49:13;;;;;;;13.27;12.20;;;18.50;99.90;;;;;;4957951;29;20231;-77
2022/07/24 03:51:39;;;;;;;13.83;12.73;;;18.50;99.90;;;;;;4956584;28;20218;-77
2022/07/24 03:54:06;;;;;;;13.70;12.53;;;18.50;99.90;;;;;;4959273;28;20480;-78
2022/07/24 03:56:35;;;;;;;14.10;12.90;;;18.50;99.90;;;;;;4959463;29;20585;-78
2022/07/24 03:59:01;;;;;;;14.13;13.00;;;18.50;99.90;;;;;;4958115;29;20261;-77
2022/07/24 04:01:28;;;;;;;14.87;13.57;;;18.40;99.90;;;;;;4957496;28;20219;-78
2022/07/24 04:03:55;;;;;;;13.80;12.60;;;18.40;99.90;;;;;;4957188;29;20285;-77
2022/07/24 04:06:22;;;;;;;14.80;13.60;;;18.40;99.90;;;;;;4951686;29;20207;-76
2022/07/24 04:08:48;;;;;;;15.03;13.73;;;18.40;99.90;;;;;;4957362;29;20727;-77
2022/07/24 04:11:15;;;;;;;15.37;13.77;;;18.30;99.90;;;;;;4957448;28;20222;-77
2022/07/24 04:13:43;;;;;;;14.77;13.43;;;18.30;99.90;;;;;;4957525;29;20195;-78
2022/07/24 04:16:10;;;;;;;13.90;12.80;;;18.30;99.90;;;;;;4953852;29;20212;-78
2022/07/24 04:18:37;;;;;;;14.47;13.27;;;18.40;99.90;;;;;;4956787;29;20205;-78
2022/07/24 04:21:04;;;;;;;14.07;12.87;;;18.40;99.90;;;;;;4957374;28;20228;-78
2022/07/24 04:23:31;;;;;;;14.20;12.90;;;18.50;99.90;;;;;;4958387;29;20213;-78
2022/07/24 04:25:58;;;;;;;12.83;11.83;;;18.50;99.90;;;;;;4957805;28;20687;-78
2022/07/24 04:28:25;;;;;;;13.47;12.37;;;18.50;99.90;;;;;;4957817;29;20226;-77
2022/07/24 04:30:53;;;;;;;13.50;12.40;;;18.60;99.90;;;;;;4958662;28;20223;-79
2022/07/24 04:33:20;;;;;;;13.23;12.20;;;18.70;99.90;;;;;;4967371;28;20214;-76
2022/07/24 04:35:47;;;;;;;14.70;13.50;;;18.80;99.90;;;;;;4965319;28;20206;-77
2022/07/24 04:38:14;;;;;;;14.80;13.40;;;18.80;99.90;;;;;;4956431;29;20246;-76
2022/07/24 04:40:41;;;;;;;13.77;12.67;;;18.90;99.90;;;;;;4955122;28;20226;-76
2022/07/24 04:43:09;;;;;;;12.77;11.67;;;19.00;99.90;;;;;;4954975;29;20199;-77
2022/07/24 04:45:36;;;;;;;12.67;11.67;;;19.20;99.90;;;;;;4956379;28;20640;-77
2022/07/24 04:48:05;;;;;;;12.37;11.37;;;19.30;99.90;;;;;;4955055;29;20275;-77
2022/07/24 04:50:31;;;;;;;12.90;11.70;;;19.40;99.90;;;;;;4956189;28;20223;-77
2022/07/24 04:52:58;;;;;;;10.00;9.10;;;19.50;99.90;;;;;;4956302;29;20200;-77
2022/07/24 04:55:25;;;;;;;11.20;10.20;;;19.60;99.90;;;;;;4948961;29;20754;-76
2022/07/24 04:57:52;;;;;;;11.73;10.73;;;19.70;99.90;;;;;;4956498;29;20257;-77
2022/07/24 05:00:19;;;;;;;13.17;12.10;;;20.00;99.90;;;;;;4949691;28;20217;-77
2022/07/24 05:02:46;;;;;;;8.87;8.07;;;20.20;99.90;;;;;;4956039;28;20694;-76
2022/07/24 05:05:14;;;;;;;8.50;7.70;;;20.30;99.90;;;;;;4955853;29;20990;-77
2022/07/24 05:07:41;;;;;;;8.73;7.83;;;20.40;99.90;;;;;;4954804;28;20263;-76
2022/07/24 05:10:08;;;;;;;9.00;8.20;;;20.50;99.90;;;;;;4956043;28;20222;-77
2022/07/24 05:12:35;;;;;;;13.30;12.20;;;20.70;99.90;;;;;;4956300;28;20305;-76
2022/07/24 05:15:02;;;;;;;9.77;8.87;;;20.80;99.90;;;;;;4954697;29;20215;-77
2022/07/24 05:17:29;;;;;;;10.43;9.53;;;21.00;99.90;;;;;;4955705;29;20690;-77
2022/07/24 05:19:56;;;;;;;11.93;10.97;;;21.20;99.90;;;;;;4956337;28;20230;-77
2022/07/24 05:22:24;;;;;;;13.37;12.17;;;21.30;99.90;;;;;;4956508;28;20203;-77
2022/07/24 05:24:51;;;;;;;12.67;11.57;;;21.40;99.90;;;;;;4955928;29;20229;-77
2022/07/24 05:27:18;;;;;;;12.53;11.43;;;21.70;99.90;;;;;;4954899;29;20254;-76
2022/07/24 05:29:46;;;;;;;12.20;11.20;;;21.90;99.90;;;;;;4956190;29;20720;-77
2022/07/24 05:32:13;;;;;;;11.50;10.53;;;22.00;99.90;;;;;;4955767;28;20211;-77
2022/07/24 05:34:40;;;;;;;13.10;11.90;;;22.00;99.90;;;;;;4957014;29;20203;-78
2022/07/24 05:37:07;;;;;;;12.70;11.60;;;22.10;99.90;;;;;;4957357;29;20293;-78
2022/07/24 05:39:35;;;;;;;12.37;11.37;;;22.10;99.90;;;;;;4957039;28;20227;-78
2022/07/24 05:42:02;;;;;;;11.97;10.97;;;22.00;99.90;;;;;;4956433;29;20199;-79
2022/07/24 05:44:29;;;;;;;12.77;11.77;;;22.00;99.90;;;;;;4959767;28;20629;-78
2022/07/24 05:46:56;;;;;;;11.57;10.37;;;22.00;99.90;;;;;;4958607;28;20191;-78
2022/07/24 05:49:23;;;;;;;11.10;10.00;;;22.10;99.90;;;;;;4956249;28;20222;-77
2022/07/24 05:51:57;;;;;;;11.60;10.47;;;22.20;99.90;;;;;;4957711;29;20265;-77
2022/07/24 05:54:23;;;;;;;10.27;9.27;;;22.20;99.90;;;;;;4957441;28;20205;-78
2022/07/24 05:56:52;;;;;;;11.60;10.60;;;22.10;99.90;;;;;;4956086;28;20269;-77
2022/07/24 05:59:18;;;;;;;10.97;9.97;;;22.10;99.90;;;;;;4955863;28;20191;-79
2022/07/24 06:01:45;;;;;;;11.57;10.47;;;22.10;99.90;;;;;;4957043;29;20206;-77
2022/07/24 06:04:12;;;;;;;10.47;9.43;;;22.10;99.90;;;;;;4955754;29;20211;-79
2022/07/24 06:06:39;;;;;;;11.83;10.83;;;22.50;99.90;;;;;;4955925;28;20203;-79
2022/07/24 06:09:06;;;;;;;11.60;10.60;;;22.80;99.90;;;;;;4956482;29;20284;-78
2022/07/24 06:11:33;;;;;;;10.10;9.03;;;23.00;99.90;;;;;;4955817;28;20222;-78
2022/07/24 06:14:01;;;;;;;10.03;8.43;;;23.20;99.90;;;;;;4955216;29;20210;-79
2022/07/24 06:16:28;;;;;;;9.13;8.27;;;23.60;99.90;;;;;;4956965;28;20203;-79
2022/07/24 06:18:55;;;;;;;10.43;8.87;;;24.10;99.90;;;;;;4955122;29;20198;-79
2022/07/24 06:21:21;;;;;;;9.73;8.83;;;24.20;99.90;;;;;;4956252;28;20222;-79
2022/07/24 06:23:48;;;;;;;9.03;8.13;;;24.30;99.90;;;;;;4955896;29;20203;-79
2022/07/24 06:26:15;;;;;;;8.53;7.63;;;24.30;99.90;;;;;;4956023;29;20253;-79
2022/07/24 06:28:42;;;;;;;12.33;11.33;;;24.40;99.90;;;;;;4956608;29;20226;-79
2022/07/24 06:31:10;;;;;;;9.87;8.97;;;24.40;99.90;;;;;;4956294;28;20704;-80
2022/07/24 06:33:37;;;;;;;10.67;9.77;;;24.60;99.90;;;;;;4954692;29;20210;-79
2022/07/24 06:36:04;;;;;;;9.17;8.27;;;24.90;99.90;;;;;;4956046;28;20202;-79
2022/07/24 06:38:31;;;;;;;9.17;8.27;;;25.30;99.90;;;;;;4956985;29;20191;-80
2022/07/24 06:40:57;;;;;;;8.50;7.70;;;25.70;99.90;;;;;;4956513;28;20254;-79
2022/07/24 06:43:24;;;;;;;8.80;8.00;;;26.20;99.90;;;;;;4957202;29;20207;-80
2022/07/24 06:45:51;;;;;;;11.97;10.80;;;26.50;99.90;;;;;;4956445;29;20206;-79
2022/07/24 06:48:19;;;;;;;11.63;10.63;;;26.70;99.90;;;;;;4954798;29;20222;-80
2022/07/24 06:50:46;;;;;;;9.37;8.57;;;26.90;99.90;;;;;;4954575;28;20777;-79
2022/07/24 06:53:13;;;;;;;11.10;10.20;;;27.20;99.90;;;;;;4953150;29;20199;-79
2022/07/24 06:55:40;;;;;;;10.80;9.80;;;27.60;99.90;;;;;;4951314;29;20265;-79
2022/07/24 06:58:06;;;;;;;11.23;10.33;;;27.80;99.90;;;;;;4955179;28;20198;-80
2022/07/24 07:00:34;;;;;;;11.93;10.93;;;28.10;99.90;;;;;;4956165;28;20226;-79
2022/07/24 07:03:00;;;;;;;11.60;10.77;;;28.30;99.90;;;;;;4955042;29;20293;-79
2022/07/24 07:05:28;;;;;;;11.73;10.83;;;28.50;99.90;;;;;;4955401;29;20622;-80
2022/07/24 07:07:55;;;;;;;12.40;11.10;;;28.90;99.90;;;;;;4954074;28;20254;-80
2022/07/24 07:10:23;;;;;;;10.03;9.03;;;29.20;99.90;;;;;;4954286;28;20258;-80
2022/07/24 07:12:50;;;;;;;10.40;9.60;;;29.40;99.90;;;;;;4954921;29;20568;-80
2022/07/24 07:15:17;;;;;;;10.83;10.03;;;29.60;99.90;;;;;;4955297;28;20194;-80
2022/07/24 07:17:45;;;;;;;11.30;10.30;;;29.70;99.90;;;;;;4955166;28;20209;-80
2022/07/24 07:20:13;;;;;;;10.13;9.33;;;29.60;99.90;;;;;;4954538;28;20215;-80
2022/07/24 07:22:42;;;;;;;9.90;9.10;;;29.70;99.90;;;;;;4955722;28;20668;-81
2022/07/24 07:25:10;;;;;;;9.13;8.43;;;30.00;99.90;;;;;;4962744;28;20487;-80
2022/07/24 07:27:39;;;;;;;9.40;8.50;;;30.10;99.90;;;;;;4955784;28;20203;-80
2022/07/24 07:30:07;;;;;;;9.53;8.63;;;30.40;99.90;;;;;;4955488;28;20253;-79
2022/07/24 07:32:35;;;;;;;8.60;7.80;;;30.50;99.90;;;;;;4957999;28;20750;-79
2022/07/24 07:35:02;;;;;;;9.43;8.43;;;30.40;99.90;;;;;;4958904;29;20258;-79
2022/07/24 07:37:29;;;;;;;10.40;9.43;;;30.30;99.90;;;;;;4958976;29;20278;-79
2022/07/24 07:39:58;;;;;;;9.77;8.77;;;30.30;99.90;;;;;;4960402;28;20194;-79
2022/07/24 07:42:25;;;;;;;9.37;8.57;;;30.40;99.90;;;;;;4959232;29;20202;-79
2022/07/24 07:44:52;;;;;;;8.73;8.03;;;30.70;99.90;;;;;;4960779;28;20198;-79
2022/07/24 07:47:19;;;;;;;9.23;8.33;;;30.70;99.90;;;;;;4957103;29;20227;-79
2022/07/24 07:49:46;;;;;;;7.83;7.23;;;31.00;99.90;;;;;;4956805;28;20233;-79
2022/07/24 07:52:14;;;;;;;9.00;8.10;;;31.20;99.90;;;;;;4959953;28;20199;-79
2022/07/24 07:54:41;;;;;;;8.90;7.80;;;31.30;99.90;;;;;;4974353;28;20207;-79
2022/07/24 07:57:09;;;;;;;8.53;7.67;;;30.90;99.90;;;;;;4976066;28;20288;-78
2022/07/24 07:59:36;;;;;;;8.97;8.17;;;31.00;97.70;;;;;;4960804;28;20671;-79
2022/07/24 08:02:03;;;;;;;8.10;7.40;;;31.00;99.60;;;;;;4958781;29;20213;-79
2022/07/24 08:04:30;;;;;;;8.93;8.13;;;31.00;98.70;;;;;;4956207;28;20261;-79
2022/07/24 08:06:58;;;;;;;9.40;8.50;;;31.10;99.90;;;;;;4965559;28;20242;-81
2022/07/24 08:09:25;;;;;;;10.20;9.40;;;31.50;99.90;;;;;;4965699;28;20259;-81
2022/07/24 08:11:52;;;;;;;10.20;9.33;;;31.80;99.20;;;;;;4968964;28;20202;-81
2022/07/24 08:14:20;;;;;;;10.47;9.57;;;31.70;98.20;;;;;;4963359;29;20195;-81
2022/07/24 08:16:47;;;;;;;10.07;9.37;;;31.80;99.40;;;;;;4958192;28;20573;-81
2022/07/24 08:19:14;;;;;;;10.10;9.20;;;31.60;99.10;;;;;;4949323;28;20198;-81
2022/07/24 08:21:45;;;;;;;9.73;8.93;;;31.50;99.10;;;;;;4955818;29;20286;-81
2022/07/24 08:24:13;;;;;;;10.13;9.23;;;31.40;98.50;;;;;;4957076;29;20194;-81
2022/07/24 08:26:40;;;;;;;9.55;8.80;;;31.50;98.50;;;;;;4955697;28;20205;-81
2022/07/24 08:29:07;;;;;;;9.00;8.30;;;31.70;98.40;;;;;;4955363;28;20207;-81
2022/07/24 08:31:35;;;;;;;9.38;8.68;;;32.10;98.90;;;;;;4955224;28;20236;-81
2022/07/24 08:34:03;;;;;;;9.60;8.90;;;32.10;98.00;;;;;;4956445;28;20206;-81
2022/07/24 08:36:30;;;;;;;9.35;8.45;;;32.30;97.40;;;;;;4956953;29;20391;-81
2022/07/24 08:38:57;;;;;;;8.85;8.15;;;32.00;97.40;;;;;;4955513;29;20225;-82
2022/07/24 08:41:24;;;;;;;9.05;8.13;;;32.00;96.70;;;;;;4955075;28;20247;-81
2022/07/24 08:43:51;;;;;;;9.02;8.10;;;32.30;97.50;;;;;;4956115;29;20294;-82
2022/07/24 08:46:18;;;;;;;9.77;8.88;;;32.50;97.30;;;;;;4956873;29;20270;-82
2022/07/24 08:48:47;;;;;;;8.25;7.45;;;32.50;94.90;;;;;;4956531;29;20211;-83
2022/07/24 08:51:15;;;;;;;9.85;9.05;;;32.30;96.20;;;;;;4956803;28;20216;-79
2022/07/24 08:53:43;;;;;;;9.57;8.80;;;32.30;95.90;;;;;;4956739;29;20191;-81
2022/07/24 09:16:44;;;;;;;10.43;9.63;;;33.50;94.70;;;;;;4941884;28;20261;-81
2022/07/24 09:19:11;;;;;;;9.88;9.00;;;33.80;94.80;;;;;;4955173;29;20195;-81
2022/07/24 09:21:40;;;;;;;9.98;9.18;;;33.80;93.80;;;;;;4954339;28;20219;-80
2022/07/24 09:24:13;;;;;;;9.68;8.90;;;33.80;94.40;;;;;;4947680;29;20206;-81
2022/07/24 09:26:44;;;;;;;9.30;8.45;;;34.00;94.00;;;;;;4954995;29;20249;-81
2022/07/24 09:29:12;;;;;;;8.55;7.80;;;33.80;94.40;;;;;;4951811;29;20215;-81
2022/07/24 09:31:55;;;;;;;9.65;8.90;;;33.80;93.20;;;;;;4955779;28;20306;-82
2022/07/24 09:35:07;;;;;;;;;;;;;;;;;;;;;
2022/07/24 09:52:29;;;;;;;9.55;8.85;;;33.50;93.70;;;;;;4952174;29;20571;-79
2022/07/24 10:05:47;;;;;;;10.65;9.75;;;33.80;91.60;;;;;;4820879;29;20699;-80
2022/07/24 10:12:14;;;;;;;10.38;9.57;;;33.80;92.20;;;;;;4894374;29;20285;-81
2022/07/24 10:19:29;;;;;;;9.70;9.00;;;34.00;91.80;;;;;;4947269;29;20250;-81
2022/07/24 10:26:13;;;;;;;;;;;;;;;;;;;;;
2022/07/24 10:29:22;;;;;;;9.50;8.80;;;33.80;93.00;;;;;;4952433;28;20708;-81
2022/07/24 10:32:01;;;;;;;10.00;9.15;;;34.00;92.30;;;;;;4948048;28;20249;-81
2022/07/24 10:34:34;;;;;;;10.77;9.77;;;34.20;91.60;;;;;;4952965;28;20210;-80
2022/07/24 10:37:11;;;;;;;10.13;9.25;;;34.00;91.30;;;;;;4951127;29;20679;-80
2022/07/24 10:39:44;;;;;;;10.07;9.27;;;33.80;91.30;;;;;;4949448;29;20218;-79
2022/07/24 10:42:10;;;;;;;10.13;9.25;;;33.80;91.70;;;;;;4954172;28;20261;-79
2022/07/24 10:44:37;;;;;;;9.90;9.10;;;33.40;92.00;;;;;;4953831;29;20209;-79
2022/07/24 10:47:08;;;;;;;9.68;8.80;;;33.40;92.10;;;;;;4954926;29;20274;-80
2022/07/24 10:49:43;;;;;;;9.77;8.98;;;33.30;91.60;;;;;;4955430;28;20219;-80
2022/07/24 10:52:12;;;;;;;9.93;9.02;;;33.40;91.50;;;;;;4955461;29;20265;-79
2022/07/24 10:54:39;;;;;;;10.10;9.30;;;33.20;92.20;;;;;;4954880;28;20194;-80
2022/07/24 10:57:06;;;;;;;9.48;8.77;;;33.10;91.50;;;;;;4953495;29;20199;-79
2022/07/24 10:59:35;;;;;;;9.65;8.95;;;33.20;91.60;;;;;;4952755;28;20222;-80
2022/07/24 11:02:28;;;;;;;10.10;9.25;;;33.20;91.40;;;;;;4954314;29;20577;-80
2022/07/24 11:05:28;;;;;;;9.60;8.90;;;33.20;91.00;;;;;;4955502;29;20256;-80
2022/07/24 11:08:15;;;;;;;9.93;9.02;;;33.20;91.90;;;;;;4898043;29;20208;-80
2022/07/24 11:10:49;;;;;;;10.15;9.35;;;33.20;91.70;;;;;;4952245;28;20856;-79
2022/07/24 11:13:45;;;;;;;10.07;9.18;;;33.10;91.50;;;;;;4952677;29;20227;-79
2022/07/24 11:16:34;;;;;;;10.25;9.35;;;32.90;91.40;;;;;;4966184;28;20209;-81
2022/07/24 11:19:31;;;;;;;10.32;9.52;;;32.90;92.20;;;;;;4954273;29;20191;-79
2022/07/24 11:22:09;;;;;;;9.30;8.60;;;33.00;91.70;;;;;;4970498;28;20199;-80
2022/07/24 11:25:11;;;;;;;8.77;8.07;;;32.90;92.10;;;;;;4955465;29;20245;-79
2022/07/24 11:27:46;;;;;;;9.27;8.57;;;32.80;91.50;;;;;;4953859;29;20225;-78
2022/07/24 11:30:14;;;;;;;11.27;10.27;;;32.80;91.50;;;;;;4955122;28;20222;-78
2022/07/24 11:32:42;;;;;;;10.73;9.83;;;32.80;92.00;;;;;;4960150;28;20214;-77
2022/07/24 11:35:10;;;;;;;11.73;10.57;;;33.00;92.30;;;;;;4956618;28;20195;-77
2022/07/24 11:37:39;;;;;;;10.55;9.70;;;32.90;91.50;;;;;;4959717;29;20206;-79
2022/07/24 11:40:36;;;;;;;10.75;9.85;;;32.70;91.90;;;;;;4956512;28;20711;-78
2022/07/24 11:43:06;;;;;;;9.73;8.95;;;33.00;91.60;;;;;;4935517;29;20743;-78
2022/07/24 11:45:33;;;;;;;10.40;9.60;;;33.20;92.00;;;;;;4951701;28;20290;-79
2022/07/24 11:48:00;;;;;;;10.15;9.23;;;33.20;91.50;;;;;;4957803;29;20209;-78
2022/07/24 11:50:29;;;;;;;9.40;8.60;;;33.30;90.90;;;;;;4957370;28;20227;-78
2022/07/24 11:52:57;;;;;;;9.63;8.82;;;33.40;91.30;;;;;;4959297;29;20206;-82
2022/07/24 11:55:25;;;;;;;9.50;8.68;;;33.40;91.40;;;;;;4960133;29;20218;-81
2022/07/24 11:57:54;;;;;;;9.43;8.63;;;33.40;91.10;;;;;;4960752;29;20234;-79
2022/07/24 12:00:24;;;;;;;10.15;9.35;;;33.30;91.30;;;;;;4954273;28;20278;-81
2022/07/24 12:02:52;;;;;;;9.95;8.95;;;33.20;90.70;;;;;;4960037;29;20686;-80
2022/07/24 12:05:26;;;;;;;9.13;8.43;;;32.90;90.50;;;;;;4954667;29;20281;-80
2022/07/24 12:07:56;;;;;;;9.73;8.93;;;32.60;91.60;;;;;;4959404;28;20205;-80
2022/07/24 12:10:23;;;;;;;9.18;8.43;;;32.50;91.20;;;;;;4961212;28;20684;-81
2022/07/24 12:12:51;;;;;;;9.18;8.48;;;32.70;92.00;;;;;;4961891;29;20258;-80
2022/07/24 12:15:18;;;;;;;9.55;8.75;;;32.90;92.00;;;;;;4959101;29;20716;-81
2022/07/24 12:17:57;;;;;;;9.10;8.40;;;33.10;91.80;;;;;;4959288;28;20207;-81
2022/07/24 12:20:26;;;;;;;10.32;9.43;;;33.10;91.10;;;;;;4958273;29;20233;-82
2022/07/24 12:22:55;;;;;;;10.30;9.30;;;32.90;91.60;;;;;;4958089;29;20327;-81
2022/07/24 12:25:23;;;;;;;9.75;9.05;;;32.80;90.90;;;;;;4955893;29;20705;-79
2022/07/24 12:27:52;;;;;;;9.38;8.68;;;32.60;91.30;;;;;;4955252;28;20240;-79
2022/07/24 12:30:26;;;;;;;9.20;8.50;;;32.40;91.20;;;;;;4956709;28;20246;-78
2022/07/24 12:32:58;;;;;;;9.85;8.95;;;32.40;91.10;;;;;;4958495;28;20213;-78
2022/07/24 12:35:26;;;;;;;10.40;9.57;;;32.40;92.00;;;;;;4957306;29;20206;-79
2022/07/24 12:37:55;;;;;;;9.83;9.03;;;32.30;91.60;;;;;;4958060;28;20278;-79
2022/07/24 12:40:34;;;;;;;8.73;7.93;;;32.30;91.90;;;;;;4957786;28;20210;-81
2022/07/24 12:43:03;;;;;;;8.67;7.87;;;32.40;92.00;;;;;;4956378;29;20230;-79
2022/07/24 12:45:31;;;;;;;9.00;8.25;;;32.30;91.20;;;;;;4956239;28;20253;-80
2022/07/24 12:48:20;;;;;;;8.33;7.53;;;32.10;91.50;;;;;;4966731;28;20238;-79
2022/07/24 12:51:09;;;;;;;8.83;8.07;;;31.60;91.40;;;;;;4952211;29;20226;-79
2022/07/24 12:53:39;;;;;;;9.53;8.83;;;31.40;92.60;;;;;;4956272;29;20253;-79
2022/07/24 12:56:14;;;;;;;9.10;8.40;;;31.20;92.20;;;;;;4957508;28;20203;-78
2022/07/24 12:58:52;;;;;;;10.40;9.50;;;31.10;92.90;;;;;;4953686;28;20202;-79
2022/07/24 13:01:19;;;;;;;9.33;8.53;;;31.00;93.10;;;;;;4968574;28;20719;-79
2022/07/24 13:03:52;;;;;;;9.27;8.37;;;31.00;93.00;;;;;;4955333;29;20199;-79
2022/07/24 13:06:19;;;;;;;9.90;9.10;;;31.00;91.80;;;;;;4957123;28;20299;-79
2022/07/24 13:08:47;;;;;;;9.97;9.13;;;30.80;92.50;;;;;;4956273;29;20206;-79
2022/07/24 13:11:14;;;;;;;9.20;8.30;;;30.80;93.30;;;;;;4953454;28;20218;-78
2022/07/24 13:13:40;;;;;;;9.53;8.57;;;30.90;92.40;;;;;;4955261;29;20203;-79
2022/07/24 13:16:08;;;;;;;11.93;9.80;;;31.00;92.80;;;;;;4957373;28;20210;-79
2022/07/24 13:18:34;;;;;;;10.93;10.03;;;30.80;92.70;;;;;;4953447;29;20207;-79
2022/07/24 13:21:01;;;;;;;10.50;9.63;;;30.70;92.30;;;;;;4952584;28;20226;-79
2022/07/24 13:23:28;;;;;;;10.27;9.47;;;30.60;92.60;;;;;;4966510;28;20203;-79
2022/07/24 13:25:56;;;;;;;10.60;9.70;;;30.60;93.00;;;;;;4957268;29;20246;-79
2022/07/24 13:28:23;;;;;;;10.90;10.00;;;30.60;92.30;;;;;;4963995;28;20283;-79
2022/07/24 13:30:50;;;;;;;9.83;9.03;;;30.70;94.00;;;;;;4954357;29;20274;-81
2022/07/24 13:33:17;;;;;;;10.70;9.60;;;30.60;92.80;;;;;;4956674;29;20210;-79
2022/07/24 13:35:44;;;;;;;9.90;9.10;;;30.60;93.50;;;;;;4956933;29;20552;-79
2022/07/24 13:38:11;;;;;;;10.40;9.50;;;30.60;93.20;;;;;;4954875;28;20269;-77
2022/07/24 13:40:38;;;;;;;9.73;8.93;;;30.60;92.30;;;;;;4956660;28;20218;-83
2022/07/24 13:43:06;;;;;;;10.60;9.70;;;30.60;92.40;;;;;;4958458;28;20562;-79
2022/07/24 13:45:33;;;;;;;7.73;7.03;;;30.50;92.30;;;;;;4954908;29;20262;-80